createdAt,value
2022-08-08T00:00:52.315Z,96.30
2022-08-08T00:03:48.156Z,96.80
2022-08-08T00:06:42.522Z,96.40
2022-08-08T00:09:38.728Z,96.50
2022-08-08T00:12:23.822Z,97.00
2022-08-08T00:15:09.638Z,97.20
2022-08-08T00:18:02.360Z,96.30
2022-08-08T00:20:44.432Z,96.80
2022-08-08T00:23:42.457Z,97.20
2022-08-08T00:26:29.081Z,98.30
2022-08-08T00:29:08.517Z,98.40
2022-08-08T00:32:28.663Z,98.50
2022-08-08T00:35:18.482Z,97.50
2022-08-08T00:38:32.019Z,97.80
2022-08-08T00:41:54.653Z,98.50
2022-08-08T00:45:21.453Z,98.50
2022-08-08T00:48:29.347Z,98.80
2022-08-08T00:51:15.246Z,99.00
2022-08-08T00:54:28.624Z,99.40
2022-08-08T00:57:29.466Z,98.80
2022-08-08T01:00:18.027Z,98.70
2022-08-08T01:04:01.662Z,99.10
2022-08-08T01:07:00.181Z,98.80
2022-08-08T01:10:14.973Z,98.80
2022-08-08T01:13:23.029Z,99.40
2022-08-08T01:16:46.883Z,99.40
2022-08-08T01:20:02.689Z,99.90
2022-08-08T01:23:05.702Z,99.90
2022-08-08T01:26:02.216Z,99.90
2022-08-08T01:29:11.723Z,99.80
2022-08-08T01:32:24.735Z,99.60
2022-08-08T01:35:32.990Z,99.90
2022-08-08T01:38:41.229Z,99.90
2022-08-08T01:41:48.375Z,99.80
2022-08-08T01:44:39.075Z,99.70
2022-08-08T01:48:14.950Z,99.50
2022-08-08T01:50:39.772Z,99.90
2022-08-08T01:55:17.045Z,99.90
2022-08-08T01:56:47.739Z,99.90
2022-08-08T02:00:01.880Z,99.90
2022-08-08T02:03:04.441Z,99.90
2022-08-08T02:05:56.261Z,99.90
2022-08-08T02:08:57.665Z,99.90
2022-08-08T02:11:59.818Z,99.90
2022-08-08T02:14:58.641Z,99.90
2022-08-08T02:17:54.696Z,99.90
2022-08-08T02:21:02.819Z,99.90
2022-08-08T02:23:37.320Z,99.90
2022-08-08T02:26:17.162Z,99.90
2022-08-08T02:29:18.524Z,99.90
2022-08-08T02:32:26.252Z,99.90
2022-08-08T02:35:08.376Z,99.90
2022-08-08T02:38:09.167Z,99.90
2022-08-08T02:40:59.580Z,99.80
2022-08-08T02:44:42.962Z,99.90
2022-08-08T02:46:59.799Z,99.90
2022-08-08T02:50:22.505Z,99.90
2022-08-08T02:53:20.380Z,99.90
2022-08-08T02:56:34.934Z,99.90
2022-08-08T02:59:57.195Z,99.90
2022-08-08T03:03:08.157Z,99.90
2022-08-08T03:05:53.542Z,99.90
2022-08-08T03:08:51.920Z,99.90
2022-08-08T03:12:02.646Z,99.90
2022-08-08T03:16:00.166Z,99.90
2022-08-08T03:18:08.325Z,99.90
2022-08-08T03:20:54.361Z,99.90
2022-08-08T03:23:56.547Z,99.90
2022-08-08T03:26:32.534Z,99.90
2022-08-08T03:29:20.598Z,99.90
2022-08-08T03:32:19.816Z,99.90
2022-08-08T03:34:51.661Z,99.90
2022-08-08T03:38:53.437Z,99.90
2022-08-08T03:40:28.922Z,99.90
2022-08-08T03:43:18.037Z,99.90
2022-08-08T03:46:05.675Z,99.90
2022-08-08T03:49:30.190Z,99.90
2022-08-08T03:51:51.393Z,99.90
2022-08-08T03:54:41.235Z,99.90
2022-08-08T03:58:09.728Z,99.90
2022-08-08T04:00:18.215Z,99.90
2022-08-08T04:03:04.267Z,99.90
2022-08-08T04:05:40.007Z,99.90
2022-08-08T04:08:33.241Z,99.90
2022-08-08T04:11:17.628Z,99.90
2022-08-08T04:14:33.351Z,99.90
2022-08-08T04:16:50.441Z,99.90
2022-08-08T04:19:25.576Z,99.90
2022-08-08T04:22:04.990Z,99.90
2022-08-08T04:24:43.050Z,99.90
2022-08-08T04:28:02.346Z,99.90
2022-08-08T04:30:18.317Z,99.90
2022-08-08T04:32:56.569Z,99.90
2022-08-08T04:35:39.558Z,99.90
2022-08-08T04:38:21.782Z,99.90
2022-08-08T04:40:58.408Z,99.90
2022-08-08T04:43:46.030Z,99.90
2022-08-08T04:46:25.107Z,99.90
2022-08-08T04:48:58.165Z,99.90
2022-08-08T04:51:55.096Z,99.90
2022-08-08T04:54:39.720Z,99.90
2022-08-08T04:57:15.478Z,99.90
2022-08-08T04:59:48.509Z,99.90
2022-08-08T05:02:28.581Z,99.90
2022-08-08T05:05:04.229Z,99.90
2022-08-08T05:07:42.109Z,99.90
2022-08-08T05:10:16.324Z,99.90
2022-08-08T05:12:59.781Z,99.90
2022-08-08T05:16:55.000Z,99.90
2022-08-08T05:18:28.994Z,99.90
2022-08-08T05:21:05.777Z,99.90
2022-08-08T05:23:41.136Z,99.90
2022-08-08T05:26:14.151Z,99.90
2022-08-08T05:28:56.357Z,99.90
2022-08-08T05:32:03.614Z,99.90
2022-08-08T05:34:36.494Z,99.90
2022-08-08T05:37:17.306Z,99.90
2022-08-08T05:39:57.353Z,99.90
2022-08-08T05:42:38.412Z,99.90
2022-08-08T05:45:25.020Z,99.90
2022-08-08T05:48:09.798Z,99.90
2022-08-08T05:50:43.578Z,99.90
2022-08-08T05:54:25.658Z,99.90
2022-08-08T05:56:22.760Z,99.90
2022-08-08T05:59:12.746Z,99.90
2022-08-08T06:01:59.921Z,99.90
2022-08-08T06:04:34.180Z,99.90
2022-08-08T06:07:10.106Z,99.90
2022-08-08T06:10:01.119Z,99.90
2022-08-08T06:12:39.442Z,99.90
2022-08-08T06:15:16.145Z,99.90
2022-08-08T06:18:21.136Z,99.90
2022-08-08T06:20:46.470Z,99.90
2022-08-08T06:23:26.353Z,99.90
2022-08-08T06:26:43.198Z,99.90
2022-08-08T06:29:49.376Z,99.90
2022-08-08T06:32:17.124Z,99.90
2022-08-08T06:36:00.551Z,99.90
2022-08-08T06:37:59.583Z,99.90
2022-08-08T06:40:37.405Z,99.90
2022-08-08T06:43:18.286Z,99.90
2022-08-08T06:46:09.194Z,99.90
2022-08-08T06:49:05.782Z,99.90
2022-08-08T06:51:47.215Z,99.90
2022-08-08T06:54:33.190Z,99.90
2022-08-08T06:57:08.723Z,99.90
2022-08-08T07:00:09.925Z,99.90
2022-08-08T07:02:36.194Z,99.50
2022-08-08T07:05:20.772Z,99.30
2022-08-08T07:08:19.768Z,98.90
2022-08-08T07:10:58.786Z,99.50
2022-08-08T07:13:39.575Z,99.50
2022-08-08T07:16:54.242Z,99.30
2022-08-08T07:19:44.844Z,99.30
2022-08-08T07:22:26.519Z,98.80
2022-08-08T07:25:03.328Z,98.50
2022-08-08T07:28:00.745Z,98.40
2022-08-08T07:30:37.527Z,97.70
2022-08-08T07:33:11.978Z,95.90
2022-08-08T07:35:54.571Z,94.10
2022-08-08T07:38:31.355Z,92.10
2022-08-08T07:41:16.722Z,91.20
2022-08-08T07:43:59.195Z,90.50
2022-08-08T07:46:31.411Z,90.50
2022-08-08T07:49:17.080Z,88.60
2022-08-08T07:51:53.480Z,88.40
2022-08-08T07:54:45.398Z,86.40
2022-08-08T07:57:48.126Z,84.40
2022-08-08T08:00:30.392Z,81.10
2022-08-08T08:03:23.828Z,78.10
2022-08-08T08:06:05.729Z,78.80
2022-08-08T08:09:04.997Z,78.40
2022-08-08T08:11:51.929Z,76.20
2022-08-08T08:14:55.957Z,76.60
2022-08-08T08:17:44.208Z,75.40
2022-08-08T08:20:30.175Z,74.70
2022-08-08T08:23:06.359Z,74.40
2022-08-08T08:25:46.824Z,75.20
2022-08-08T08:28:27.991Z,73.10
2022-08-08T08:31:05.990Z,73.40
2022-08-08T08:33:40.471Z,73.00
2022-08-08T08:36:21.937Z,72.90
2022-08-08T08:39:00.082Z,73.20
2022-08-08T08:41:48.665Z,72.60
2022-08-08T08:44:22.430Z,71.80
2022-08-08T08:47:02.799Z,70.10
2022-08-08T08:49:42.911Z,71.10
2022-08-08T08:52:20.713Z,71.00
2022-08-08T08:54:56.952Z,70.70
2022-08-08T08:57:30.350Z,69.80
2022-08-08T09:00:15.573Z,69.90
2022-08-08T09:02:53.010Z,69.90
2022-08-08T09:05:48.734Z,70.40
2022-08-08T09:08:23.998Z,70.70
2022-08-08T09:10:57.092Z,69.60
2022-08-08T09:13:32.285Z,69.60
2022-08-08T09:16:04.785Z,69.40
2022-08-08T09:18:45.082Z,68.50
2022-08-08T09:22:00.532Z,69.60
2022-08-08T09:24:14.255Z,68.80
2022-08-08T09:27:06.205Z,68.80
2022-08-08T09:30:06.377Z,67.30
2022-08-08T09:33:11.952Z,67.30
2022-08-08T09:35:50.723Z,66.30
2022-08-08T09:38:54.711Z,66.80
2022-08-08T09:41:54.763Z,66.70
2022-08-08T09:45:03.951Z,66.60
2022-08-08T09:48:09.796Z,65.50
2022-08-08T09:50:34.487Z,66.90
2022-08-08T09:53:24.429Z,66.20
2022-08-08T09:56:07.072Z,64.80
2022-08-08T09:58:53.867Z,64.80
2022-08-08T10:01:59.938Z,64.70
2022-08-08T10:04:41.554Z,64.60
2022-08-08T10:07:20.147Z,63.30
2022-08-08T10:09:59.180Z,63.60
2022-08-08T10:12:53.842Z,63.40
2022-08-08T10:15:39.234Z,61.60
2022-08-08T10:18:17.733Z,62.30
2022-08-08T10:21:22.566Z,60.90
2022-08-08T10:24:03.452Z,60.70
2022-08-08T10:26:59.267Z,59.70
2022-08-08T10:29:56.767Z,59.10
2022-08-08T10:32:34.393Z,59.50
2022-08-08T10:36:06.299Z,58.70
2022-08-08T10:38:14.246Z,59.10
2022-08-08T10:40:53.275Z,58.40
2022-08-08T10:43:37.562Z,59.20
2022-08-08T10:46:30.394Z,58.70
2022-08-08T10:49:03.660Z,60.00
2022-08-08T10:51:47.218Z,58.10
2022-08-08T10:54:27.060Z,57.50
2022-08-08T10:57:00.972Z,56.80
2022-08-08T10:59:39.325Z,56.20
2022-08-08T11:02:12.470Z,56.60
2022-08-08T11:04:52.996Z,57.40
2022-08-08T11:08:31.793Z,57.90
2022-08-08T11:10:28.806Z,57.20
2022-08-08T11:16:00.882Z,58.30
2022-08-08T11:18:40.899Z,57.70
2022-08-08T11:21:19.636Z,57.60
2022-08-08T11:24:03.853Z,57.40
2022-08-08T11:26:56.572Z,57.00
2022-08-08T11:29:50.739Z,56.40
2022-08-08T11:32:29.549Z,56.50
2022-08-08T11:35:25.013Z,56.80
2022-08-08T11:38:38.692Z,57.20
2022-08-08T11:41:01.046Z,57.30
2022-08-08T11:43:39.145Z,57.50
2022-08-08T11:46:17.955Z,57.10
2022-08-08T11:48:52.121Z,57.50
2022-08-08T11:51:30.719Z,57.40
2022-08-08T11:54:31.250Z,57.00
2022-08-08T11:57:23.844Z,57.10
2022-08-08T12:00:19.067Z,56.80
2022-08-08T12:02:55.062Z,57.60
2022-08-08T12:05:34.127Z,57.50
2022-08-08T12:08:06.973Z,57.30
2022-08-08T12:10:50.864Z,55.90
2022-08-08T12:13:37.819Z,56.80
2022-08-08T12:16:30.297Z,56.50
2022-08-08T12:19:12.135Z,57.00
2022-08-08T12:21:59.245Z,57.00
2022-08-08T12:24:48.494Z,56.50
2022-08-08T12:27:45.031Z,56.60
2022-08-08T12:30:30.751Z,56.50
2022-08-08T12:33:02.819Z,56.90
2022-08-08T12:35:41.423Z,56.80
2022-08-08T12:38:30.249Z,56.90
2022-08-08T12:41:24.530Z,56.60
2022-08-08T12:44:10.061Z,56.60
2022-08-08T12:46:42.748Z,56.20
2022-08-08T12:49:43.934Z,56.10
2022-08-08T12:52:28.353Z,56.30
2022-08-08T12:55:13.648Z,56.40
2022-08-08T12:57:49.863Z,57.50
2022-08-08T13:00:33.899Z,56.10
2022-08-08T13:03:23.998Z,56.30
2022-08-08T13:06:13.990Z,56.10
2022-08-08T13:08:53.812Z,55.00
2022-08-08T13:12:19.735Z,53.90
2022-08-08T13:14:39.549Z,53.10
2022-08-08T13:17:53.955Z,52.70
2022-08-08T13:20:20.758Z,52.60
2022-08-08T13:23:27.008Z,53.90
2022-08-08T13:25:58.759Z,55.00
2022-08-08T13:28:33.026Z,55.70
2022-08-08T13:31:05.520Z,53.70
2022-08-08T13:33:42.049Z,52.90
2022-08-08T13:36:14.925Z,52.10
2022-08-08T13:38:49.934Z,54.10
2022-08-08T13:41:22.954Z,51.80
2022-08-08T13:43:55.661Z,51.60
2022-08-08T13:46:29.589Z,51.50
2022-08-08T13:50:32.173Z,51.40
2022-08-08T13:51:57.731Z,51.80
2022-08-08T13:54:34.224Z,50.70
2022-08-08T13:57:11.295Z,50.60
2022-08-08T13:59:48.267Z,50.40
2022-08-08T14:02:32.742Z,50.50
2022-08-08T14:05:20.099Z,50.20
2022-08-08T14:08:01.677Z,49.90
2022-08-08T14:10:45.302Z,49.60
2022-08-08T14:13:30.658Z,49.20
2022-08-08T14:16:15.793Z,48.90
2022-08-08T14:18:54.763Z,50.80
2022-08-08T14:21:48.955Z,49.60
2022-08-08T14:24:34.062Z,49.60
2022-08-08T14:27:17.213Z,50.60
2022-08-08T14:30:03.328Z,49.00
2022-08-08T14:32:54.720Z,48.30
2022-08-08T14:35:35.489Z,50.60
2022-08-08T14:38:34.318Z,49.20
2022-08-08T14:41:53.471Z,49.40
2022-08-08T14:44:20.973Z,49.50
2022-08-08T14:47:01.146Z,49.90
2022-08-08T14:49:51.372Z,49.40
2022-08-08T14:52:28.499Z,49.30
2022-08-08T14:55:00.347Z,49.30
2022-08-08T14:58:06.120Z,49.40
2022-08-08T15:00:28.622Z,50.10
2022-08-08T15:03:15.131Z,49.30
2022-08-08T15:05:53.337Z,49.50
2022-08-08T15:08:34.425Z,49.50
2022-08-08T15:11:17.519Z,50.90
2022-08-08T15:14:03.121Z,49.30
2022-08-08T15:16:36.233Z,50.00
2022-08-08T15:19:08.604Z,50.00
2022-08-08T15:21:42.777Z,50.20
2022-08-08T15:24:16.120Z,50.50
2022-08-08T15:26:53.143Z,50.00
2022-08-08T15:29:26.316Z,50.80
2022-08-08T15:32:18.918Z,50.60
2022-08-08T15:34:52.470Z,50.10
2022-08-08T15:37:25.233Z,50.10
2022-08-08T15:39:58.402Z,50.30
2022-08-08T15:42:32.453Z,50.20
2022-08-08T15:45:06.260Z,51.50
2022-08-08T15:47:38.556Z,52.60
2022-08-08T15:50:20.259Z,53.00
2022-08-08T15:52:53.124Z,52.50
2022-08-08T15:55:25.795Z,51.40
2022-08-08T15:57:57.665Z,51.30
2022-08-08T16:00:30.636Z,51.20
2022-08-08T16:03:02.487Z,51.50
2022-08-08T16:05:45.917Z,52.00
2022-08-08T16:08:31.554Z,52.20
2022-08-08T16:13:11.079Z,52.20
2022-08-08T16:13:56.529Z,51.70
2022-08-08T16:16:32.977Z,51.80
2022-08-08T16:19:05.583Z,53.50
2022-08-08T16:21:37.958Z,54.00
2022-08-08T16:24:14.954Z,54.10
2022-08-08T16:26:50.660Z,54.30
2022-08-08T16:29:23.890Z,54.50
2022-08-08T16:32:13.053Z,54.60
2022-08-08T16:34:53.175Z,54.70
2022-08-08T16:37:27.863Z,54.70
2022-08-08T16:40:03.325Z,54.80
2022-08-08T16:42:38.872Z,54.70
2022-08-08T16:46:37.894Z,54.60
2022-08-08T16:48:05.317Z,54.00
2022-08-08T16:50:37.137Z,54.40
2022-08-08T16:55:06.391Z,54.60
2022-08-08T16:56:02.925Z,54.60
2022-08-08T16:58:37.511Z,54.60
2022-08-08T17:01:15.434Z,54.70
2022-08-08T17:04:00.192Z,54.60
2022-08-08T17:06:43.290Z,54.90
2022-08-08T17:09:19.683Z,54.80
2022-08-08T17:11:59.451Z,55.00
2022-08-08T17:14:36.430Z,54.70
2022-08-08T17:17:22.986Z,55.50
2022-08-08T17:20:02.967Z,55.00
2022-08-08T17:22:42.306Z,55.20
2022-08-08T17:25:15.720Z,55.40
2022-08-08T17:27:49.659Z,55.50
2022-08-08T17:30:29.167Z,55.60
2022-08-08T17:34:35.026Z,55.70
2022-08-08T17:36:12.600Z,55.60
2022-08-08T17:38:47.085Z,55.60
2022-08-08T17:41:30.468Z,54.90
2022-08-08T17:44:12.300Z,54.20
2022-08-08T17:46:46.550Z,53.60
2022-08-08T17:49:37.982Z,53.80
2022-08-08T17:52:10.881Z,53.70
2022-08-08T17:54:43.529Z,53.30
2022-08-08T17:57:18.796Z,53.50
2022-08-08T17:59:51.776Z,53.40
2022-08-08T18:02:30.950Z,53.60
2022-08-08T18:05:04.403Z,53.60
2022-08-08T18:08:02.063Z,53.40
2022-08-08T18:10:31.765Z,53.60
2022-08-08T18:13:07.452Z,54.00
2022-08-08T18:15:41.602Z,53.90
2022-08-08T18:18:29.372Z,54.10
2022-08-08T18:21:10.621Z,54.00
2022-08-08T18:23:56.152Z,54.30
2022-08-08T18:26:29.252Z,54.40
2022-08-08T18:29:01.617Z,54.70
2022-08-08T18:31:34.671Z,54.20
2022-08-08T18:34:27.174Z,54.60
2022-08-08T18:37:04.901Z,54.70
2022-08-08T18:39:42.077Z,55.20
2022-08-08T18:42:16.405Z,55.50
2022-08-08T18:44:53.104Z,55.00
2022-08-08T18:47:33.635Z,55.90
2022-08-08T18:50:06.200Z,56.00
2022-08-08T18:52:38.881Z,55.90
2022-08-08T18:55:11.717Z,56.50
2022-08-08T18:57:45.214Z,56.90
2022-08-08T19:00:21.280Z,56.70
2022-08-08T19:03:03.889Z,57.20
2022-08-08T19:05:45.282Z,57.40
2022-08-08T19:08:24.865Z,57.40
2022-08-08T19:11:02.413Z,57.20
2022-08-08T19:13:52.929Z,56.70
2022-08-08T19:16:32.078Z,57.40
2022-08-08T19:19:13.327Z,57.10
2022-08-08T19:21:48.871Z,57.20
2022-08-08T19:24:43.070Z,57.20
2022-08-08T19:27:15.073Z,57.30
2022-08-08T19:29:50.024Z,58.00
2022-08-08T19:32:22.963Z,58.00
2022-08-08T19:34:55.857Z,58.10
2022-08-08T19:37:42.134Z,58.50
2022-08-08T19:40:16.617Z,58.80
2022-08-08T19:42:49.358Z,58.70
2022-08-08T19:45:58.415Z,59.10
2022-08-08T19:48:28.956Z,59.80
2022-08-08T19:51:04.064Z,59.50
2022-08-08T19:53:51.302Z,59.90
2022-08-08T19:56:39.947Z,59.30
2022-08-08T19:59:13.294Z,59.50
2022-08-08T20:02:01.893Z,60.10
2022-08-08T20:04:36.592Z,60.30
2022-08-08T20:08:28.065Z,60.60
2022-08-08T20:10:04.436Z,60.90
2022-08-08T20:12:40.394Z,60.50
2022-08-08T20:15:59.899Z,60.40
2022-08-08T20:18:37.186Z,60.90
2022-08-08T20:21:23.265Z,60.60
2022-08-08T20:23:58.581Z,61.00
2022-08-08T20:26:33.911Z,61.50
2022-08-08T20:29:08.688Z,62.00
2022-08-08T20:32:02.486Z,62.10
2022-08-08T20:34:33.466Z,62.20
2022-08-08T20:37:09.951Z,62.10
2022-08-08T20:39:51.687Z,61.90
2022-08-08T20:42:29.307Z,63.20
2022-08-08T20:45:01.282Z,63.20
2022-08-08T20:47:36.523Z,63.40
2022-08-08T20:50:10.982Z,63.20
2022-08-08T20:52:48.186Z,63.50
2022-08-08T20:55:25.519Z,64.00
2022-08-08T20:57:58.949Z,64.50
2022-08-08T21:00:30.808Z,64.40
2022-08-08T21:03:03.630Z,65.50
2022-08-08T21:05:49.364Z,64.60
2022-08-08T21:08:35.996Z,65.20
2022-08-08T21:11:20.362Z,65.80
2022-08-08T21:14:13.754Z,65.70
2022-08-08T21:16:46.509Z,65.80
2022-08-08T21:19:19.101Z,66.00
2022-08-08T21:21:59.212Z,66.50
2022-08-08T21:24:32.361Z,66.90
2022-08-08T21:27:05.583Z,66.20
2022-08-08T21:30:05.651Z,67.10
2022-08-08T21:32:44.160Z,66.80
2022-08-08T21:36:13.579Z,67.00
2022-08-08T21:38:17.249Z,67.70
2022-08-08T21:40:55.925Z,67.50
2022-08-08T21:43:33.225Z,70.30
2022-08-08T21:48:08.839Z,72.90
2022-08-08T21:49:02.079Z,68.50
2022-08-08T21:54:18.084Z,70.20
2022-08-08T21:54:53.807Z,73.50
2022-08-08T21:57:25.078Z,73.70
2022-08-08T22:00:03.556Z,70.60
2022-08-08T22:02:47.300Z,74.80
2022-08-08T22:05:20.036Z,78.10
2022-08-08T22:07:51.841Z,70.70
2022-08-08T22:10:32.769Z,70.80
2022-08-08T22:13:17.461Z,73.20
2022-08-08T22:15:58.691Z,77.10
2022-08-08T22:18:34.484Z,72.30
2022-08-08T22:21:13.780Z,72.10
2022-08-08T22:23:53.517Z,70.00
2022-08-08T22:26:30.940Z,76.50
2022-08-08T22:29:04.841Z,70.80
2022-08-08T22:31:58.453Z,70.90
2022-08-08T22:34:39.590Z,71.90
2022-08-08T22:37:27.711Z,73.20
2022-08-08T22:40:05.143Z,71.50
2022-08-08T22:42:37.566Z,73.70
2022-08-08T22:45:12.708Z,72.00
2022-08-08T22:47:48.912Z,71.60
2022-08-08T22:50:25.597Z,72.90
2022-08-08T22:54:28.322Z,74.10
2022-08-08T22:55:59.914Z,71.00
2022-08-08T22:58:34.197Z,70.30
2022-08-08T23:01:16.605Z,71.30
2022-08-08T23:04:03.295Z,73.90
2022-08-08T23:06:35.256Z,71.10
2022-08-08T23:09:09.641Z,72.30
2022-08-08T23:12:28.286Z,74.60
2022-08-08T23:14:34.354Z,72.20
2022-08-08T23:17:08.570Z,72.70
2022-08-08T23:19:45.285Z,74.70
2022-08-08T23:22:26.748Z,73.90
2022-08-08T23:25:01.858Z,76.30
2022-08-08T23:27:37.868Z,72.90
2022-08-08T23:30:11.599Z,73.50
2022-08-08T23:32:45.097Z,73.20
2022-08-08T23:35:18.890Z,72.70
2022-08-08T23:38:02.977Z,72.50
2022-08-08T23:40:36.276Z,76.80
2022-08-08T23:43:10.208Z,74.30
2022-08-08T23:49:01.113Z,76.90
2022-08-08T23:49:03.339Z,72.60
2022-08-08T23:51:42.614Z,74.00
2022-08-08T23:54:43.759Z,75.50
2022-08-08T23:57:15.311Z,77.50
